Santa Venetia, California
Current Conditions -  °F | °C
As of 10:35 PM on Wednesday 26 Nov 2014 (Local Time) from KDVO Reporting Station
Clear Clear  
Wind Chill: 48°   Ceiling: Unl
Heat Index: 48°   Visibility: 9mi
Dew Point: 46°   Wind: 3mph
Humidity: 93%   Direction: 190°S
Pressure: 30.23"   Gusts: NA
Location:  38.0232°N, 122.547°W
Report Text: KDVO 270635Z AUTO 19003KT 9SM CLR 09/08 A3023 RMK AO2
Loading
Personal Weather Stations






























Interactive Weather Map New forecast layout! Learn more

10-Day Weather Forecast

Advertisements
Track Severe Weather on mobile